Time;durP1;ratioP1;P1;durP2;ratioP2;P2;SDS_P1;SDS_P2;PMS_P1;PMS_P2;Temp;Humidity;BMP_temperature;BMP_pressure;BME280_temperature;BME280_humidity;BME280_pressure;Samples;Min_cycle;Max_cycle;Signal;HPM_P1;HPM_P2
2022/05/23 00:02:19;;;;;;;7.57;2.85;;;;;;;;;;4922396;29;20067;-84
2022/05/23 00:04:46;;;;;;;6.07;2.67;;;;;;;;;;4922463;29;20118;-83
2022/05/23 00:07:22;;;;;;;6.85;2.90;;;;;;;;;;4922209;29;20040;-85
2022/05/23 00:09:48;;;;;;;5.85;2.90;;;;;;;;;;4922070;29;20055;-83
2022/05/23 00:12:14;;;;;;;6.40;3.13;;;;;;;;;;4922211;29;20044;-83
2022/05/23 00:14:42;;;;;;;7.05;2.42;;;;;;;;;;4922267;29;20048;-84
2022/05/23 00:17:09;;;;;;;6.65;2.83;;;;;;;;;;4922072;29;20036;-83
2022/05/23 00:19:35;;;;;;;8.00;2.70;;;;;;;;;;4921875;29;20180;-83
2022/05/23 00:22:01;;;;;;;10.05;2.90;;;;;;;;;;4921712;29;20161;-83
2022/05/23 00:24:27;;;;;;;7.53;2.63;;;;;;;;;;4922135;29;20061;-83
2022/05/23 00:26:53;;;;;;;7.45;2.60;;;;;;;;;;4921692;29;20049;-83
2022/05/23 00:29:19;;;;;;;6.43;2.67;;;;;;;;;;4922077;29;20122;-83
2022/05/23 00:37:15;;;;;;;11.07;3.00;;;;;;;;;;4921404;29;20052;-83
2022/05/23 00:39:41;;;;;;;6.78;2.63;;;;;;;;;;4921710;29;20058;-83
2022/05/23 00:44:57;;;;;;;7.45;2.88;;;;;;;;;;4921514;29;20051;-83
2022/05/23 00:47:25;;;;;;;8.35;2.95;;;;;;;;;;4921307;29;20052;-83
2022/05/23 00:49:51;;;;;;;8.43;3.15;;;;;;;;;;4921588;29;20043;-83
2022/05/23 00:52:28;;;;;;;8.25;2.60;;;;;;;;;;4938363;29;20062;-83
2022/05/23 00:54:55;;;;;;;8.30;3.20;;;;;;;;;;4921435;29;20043;-83
2022/05/23 00:57:23;;;;;;;5.82;2.60;;;;;;;;;;4938329;29;20044;-83
2022/05/23 00:59:50;;;;;;;7.78;3.20;;;;;;;;;;4905521;29;20079;-83
2022/05/23 01:02:16;;;;;;;6.15;2.80;;;;;;;;;;4920971;29;20467;-83
2022/05/23 01:04:43;;;;;;;7.13;2.72;;;;;;;;;;4905619;29;20043;-84
2022/05/23 01:07:09;;;;;;;8.05;3.15;;;;;;;;;;4905493;29;20047;-83
2022/05/23 01:09:36;;;;;;;7.50;3.20;;;;;;;;;;4920384;29;20036;-83
2022/05/23 01:12:02;;;;;;;6.15;2.80;;;;;;;;;;4938175;29;20039;-83
2022/05/23 01:14:45;;;;;;;7.70;2.90;;;;;;;;;;4921200;29;20050;-83
2022/05/23 01:17:11;;;;;;;6.85;3.00;;;;;;;;;;4920831;29;20054;-84
2022/05/23 01:19:36;;;;;;;6.40;2.90;;;;;;;;;;4921081;29;20051;-84
2022/05/23 01:22:08;;;;;;;8.57;3.70;;;;;;;;;;4937912;29;20094;-84
2022/05/23 01:24:42;;;;;;;8.40;3.47;;;;;;;;;;4920865;29;20530;-84
2022/05/23 01:27:08;;;;;;;6.35;3.28;;;;;;;;;;4920841;29;20058;-83
2022/05/23 01:29:34;;;;;;;6.53;3.70;;;;;;;;;;4938054;29;20050;-83
2022/05/23 01:32:00;;;;;;;7.60;3.42;;;;;;;;;;4920360;29;20122;-83
2022/05/23 01:34:26;;;;;;;7.68;3.45;;;;;;;;;;4905074;29;20060;-84
2022/05/23 01:36:53;;;;;;;6.80;3.70;;;;;;;;;;4920485;29;20051;-83
2022/05/23 01:39:19;;;;;;;7.13;4.00;;;;;;;;;;4920506;29;20047;-83
2022/05/23 01:41:45;;;;;;;8.00;3.53;;;;;;;;;;4937653;29;20047;-83
2022/05/23 01:44:11;;;;;;;7.25;3.72;;;;;;;;;;4937673;29;20119;-84
2022/05/23 01:46:37;;;;;;;8.45;3.53;;;;;;;;;;4920615;29;20499;-83
2022/05/23 01:49:03;;;;;;;9.75;4.25;;;;;;;;;;4937207;29;20067;-84
2022/05/23 01:51:29;;;;;;;6.65;3.80;;;;;;;;;;4920505;29;20035;-84
2022/05/23 01:53:55;;;;;;;10.00;3.75;;;;;;;;;;4937330;29;20039;-84
2022/05/23 01:56:21;;;;;;;7.47;3.72;;;;;;;;;;4920604;29;20084;-84
2022/05/23 02:01:31;;;;;;;8.48;4.10;;;;;;;;;;4937165;29;20084;-83
2022/05/23 02:03:58;;;;;;;6.15;4.35;;;;;;;;;;4937239;29;20067;-83
2022/05/23 02:06:24;;;;;;;6.93;4.00;;;;;;;;;;4920714;29;20496;-83
2022/05/23 02:08:49;;;;;;;8.70;4.22;;;;;;;;;;4904440;29;20079;-83
2022/05/23 02:11:16;;;;;;;6.68;3.72;;;;;;;;;;4920019;29;20491;-83
2022/05/23 02:13:43;;;;;;;10.23;4.75;;;;;;;;;;4919792;29;20126;-83
2022/05/23 02:16:09;;;;;;;11.48;4.93;;;;;;;;;;4904398;29;20078;-83
2022/05/23 02:18:35;;;;;;;7.05;4.45;;;;;;;;;;4936692;29;20467;-83
2022/05/23 02:21:01;;;;;;;8.90;5.45;;;;;;;;;;4936169;29;20039;-84
2022/05/23 02:23:27;;;;;;;7.65;4.82;;;;;;;;;;4936652;29;20082;-83
2022/05/23 02:25:53;;;;;;;9.73;4.80;;;;;;;;;;4904426;29;20044;-83
2022/05/23 02:28:20;;;;;;;8.07;4.90;;;;;;;;;;4919725;29;20048;-83
2022/05/23 02:30:47;;;;;;;9.02;4.85;;;;;;;;;;4919587;29;20083;-83
2022/05/23 02:33:14;;;;;;;9.45;4.63;;;;;;;;;;4936762;29;20057;-83
2022/05/23 02:35:40;;;;;;;10.15;4.80;;;;;;;;;;4903899;29;20048;-83
2022/05/23 02:38:06;;;;;;;8.88;5.18;;;;;;;;;;4919363;29;20550;-83
2022/05/23 02:40:32;;;;;;;7.00;4.35;;;;;;;;;;4936757;29;20082;-83
2022/05/23 02:42:58;;;;;;;8.43;5.30;;;;;;;;;;4919544;29;20524;-83
2022/05/23 02:45:24;;;;;;;8.20;5.47;;;;;;;;;;4919423;29;20071;-83
2022/05/23 02:47:51;;;;;;;7.40;4.80;;;;;;;;;;4919209;29;20051;-83
2022/05/23 02:50:17;;;;;;;9.25;5.60;;;;;;;;;;4936545;29;20053;-83
2022/05/23 02:52:44;;;;;;;7.03;4.97;;;;;;;;;;4903257;29;20075;-84
2022/05/23 02:55:10;;;;;;;6.43;5.07;;;;;;;;;;4919287;29;20071;-83
2022/05/23 02:57:36;;;;;;;9.57;4.57;;;;;;;;;;4919182;29;20051;-83
2022/05/23 03:00:04;;;;;;;8.68;5.35;;;;;;;;;;4919149;29;20122;-83
2022/05/23 03:05:14;;;;;;;7.97;5.00;;;;;;;;;;4936225;29;20225;-84
2022/05/23 03:07:40;;;;;;;7.68;5.15;;;;;;;;;;4918851;29;20206;-83
2022/05/23 03:10:06;;;;;;;9.93;5.43;;;;;;;;;;4936248;29;20444;-83
2022/05/23 03:12:34;;;;;;;9.80;5.53;;;;;;;;;;4919136;29;20050;-83
2022/05/23 03:15:00;;;;;;;8.80;5.50;;;;;;;;;;4903145;29;20047;-84
2022/05/23 03:17:26;;;;;;;9.43;5.32;;;;;;;;;;4918816;29;20048;-83
2022/05/23 03:19:52;;;;;;;12.80;6.47;;;;;;;;;;4935764;29;20050;-84
2022/05/23 03:27:47;;;;;;;9.60;5.97;;;;;;;;;;4935966;29;20087;-83
2022/05/23 03:30:14;;;;;;;9.32;6.18;;;;;;;;;;4918406;29;20094;-83
2022/05/23 03:32:40;;;;;;;8.98;5.70;;;;;;;;;;4918594;29;20059;-84
2022/05/23 03:35:07;;;;;;;9.30;6.05;;;;;;;;;;4918428;29;20090;-84
2022/05/23 03:37:33;;;;;;;9.50;5.63;;;;;;;;;;4918884;29;20377;-84
2022/05/23 03:39:59;;;;;;;8.23;5.15;;;;;;;;;;4918264;29;20174;-84
2022/05/23 03:42:25;;;;;;;10.65;5.70;;;;;;;;;;4918780;29;20167;-84
2022/05/23 03:44:51;;;;;;;10.73;5.65;;;;;;;;;;4918353;29;20118;-84
2022/05/23 03:47:17;;;;;;;11.10;5.95;;;;;;;;;;4918502;29;20035;-83
2022/05/23 03:49:42;;;;;;;10.75;5.72;;;;;;;;;;4935332;29;20444;-83
2022/05/23 03:52:08;;;;;;;11.05;5.82;;;;;;;;;;4918636;29;20055;-83
2022/05/23 03:54:34;;;;;;;8.30;5.95;;;;;;;;;;4918285;29;20083;-83
2022/05/23 03:57:02;;;;;;;10.10;5.50;;;;;;;;;;4935791;29;20451;-83
2022/05/23 03:59:28;;;;;;;8.90;5.25;;;;;;;;;;4918158;29;20048;-83
2022/05/23 04:01:56;;;;;;;10.57;5.50;;;;;;;;;;4902851;29;20467;-83
2022/05/23 04:04:23;;;;;;;9.77;5.70;;;;;;;;;;4918184;29;20048;-84
2022/05/23 04:06:49;;;;;;;8.00;5.05;;;;;;;;;;4918637;29;20506;-83
2022/05/23 04:09:15;;;;;;;7.93;5.18;;;;;;;;;;4935513;29;20044;-84
2022/05/23 04:11:41;;;;;;;10.68;5.28;;;;;;;;;;4918286;29;20455;-83
2022/05/23 04:14:07;;;;;;;10.18;5.18;;;;;;;;;;4918273;29;20043;-83
2022/05/23 04:16:33;;;;;;;7.63;4.85;;;;;;;;;;4918301;29;20102;-84
2022/05/23 04:18:59;;;;;;;11.00;4.97;;;;;;;;;;4935082;29;20392;-84
2022/05/23 04:21:25;;;;;;;10.27;5.47;;;;;;;;;;4935447;29;20115;-84
2022/05/23 04:23:51;;;;;;;11.68;5.70;;;;;;;;;;4918241;29;20051;-83
2022/05/23 04:26:17;;;;;;;9.35;5.65;;;;;;;;;;4918151;29;20399;-83
2022/05/23 04:28:43;;;;;;;9.60;5.63;;;;;;;;;;4902408;29;20047;-83
2022/05/23 04:31:09;;;;;;;11.18;5.50;;;;;;;;;;4917959;29;20111;-84
2022/05/23 04:36:20;;;;;;;9.23;5.07;;;;;;;;;;4935405;29;20048;-83
2022/05/23 04:38:46;;;;;;;10.68;5.15;;;;;;;;;;4917770;29;20507;-84
2022/05/23 04:41:12;;;;;;;9.25;5.45;;;;;;;;;;4917988;29;20043;-83
2022/05/23 04:43:38;;;;;;;8.38;5.30;;;;;;;;;;4918371;29;20127;-83
2022/05/23 04:46:04;;;;;;;8.05;5.18;;;;;;;;;;4938753;29;20348;-84
2022/05/23 04:51:15;;;;;;;8.57;5.15;;;;;;;;;;4938621;29;20130;-83
2022/05/23 04:53:41;;;;;;;8.48;5.00;;;;;;;;;;4905377;29;20134;-84
2022/05/23 04:56:07;;;;;;;9.10;5.43;;;;;;;;;;4921599;29;20047;-84
2022/05/23 04:58:33;;;;;;;8.75;5.20;;;;;;;;;;4921170;29;20563;-84
2022/05/23 05:00:59;;;;;;;7.20;4.80;;;;;;;;;;4938003;29;20126;-83
2022/05/23 05:03:25;;;;;;;8.90;5.45;;;;;;;;;;4921105;29;20460;-84
2022/05/23 05:05:51;;;;;;;9.48;5.88;;;;;;;;;;4920902;29;20122;-83
2022/05/23 05:08:18;;;;;;;9.52;5.13;;;;;;;;;;4938402;29;20058;-84
2022/05/23 05:10:45;;;;;;;8.45;5.35;;;;;;;;;;4920801;29;20048;-83
2022/05/23 05:13:11;;;;;;;10.60;4.95;;;;;;;;;;4938322;29;20055;-83
2022/05/23 05:15:37;;;;;;;9.13;5.43;;;;;;;;;;4920693;29;20385;-83
2022/05/23 05:18:03;;;;;;;10.93;5.63;;;;;;;;;;4905202;29;20051;-84
2022/05/23 05:20:29;;;;;;;10.05;5.30;;;;;;;;;;4920694;29;20050;-84
2022/05/23 05:22:56;;;;;;;11.20;5.18;;;;;;;;;;4921205;29;20058;-85
2022/05/23 05:25:22;;;;;;;10.02;5.13;;;;;;;;;;4920829;29;20541;-83
2022/05/23 05:27:48;;;;;;;9.98;4.80;;;;;;;;;;4920830;29;20132;-84
2022/05/23 05:30:16;;;;;;;10.27;5.90;;;;;;;;;;4920539;29;20096;-83
2022/05/23 05:32:46;;;;;;;7.32;4.75;;;;;;;;;;4938004;29;20051;-83
2022/05/23 05:35:15;;;;;;;8.65;5.35;;;;;;;;;;4920733;29;20127;-84
2022/05/23 05:37:45;;;;;;;10.60;5.10;;;;;;;;;;4920708;29;20059;-84
2022/05/23 05:40:13;;;;;;;8.73;5.30;;;;;;;;;;4937302;29;20407;-84
2022/05/23 05:42:42;;;;;;;10.93;5.15;;;;;;;;;;4920722;29;20047;-83
2022/05/23 05:45:11;;;;;;;10.43;5.78;;;;;;;;;;4937407;29;20050;-83
2022/05/23 05:47:38;;;;;;;11.00;5.38;;;;;;;;;;4920449;29;20106;-83
2022/05/23 05:50:06;;;;;;;9.82;5.55;;;;;;;;;;4920345;29;20058;-83
2022/05/23 05:52:33;;;;;;;10.60;5.43;;;;;;;;;;4920361;29;20098;-83
2022/05/23 05:55:01;;;;;;;9.88;5.97;;;;;;;;;;4919889;29;20148;-83
2022/05/23 05:57:28;;;;;;;9.75;5.72;;;;;;;;;;4920249;29;20040;-84
2022/05/23 05:59:53;;;;;;;10.98;5.47;;;;;;;;;;4920250;29;20075;-83
2022/05/23 06:02:19;;;;;;;12.02;5.88;;;;;;;;;;4920182;29;20514;-84
2022/05/23 06:04:45;;;;;;;8.63;5.20;;;;;;;;;;4919991;29;20047;-83
2022/05/23 06:12:47;;;;;;;10.93;6.15;;;;;;;;;;4937205;29;20047;-83
2022/05/23 06:15:13;;;;;;;12.05;5.88;;;;;;;;;;4904257;29;20050;-83
2022/05/23 06:17:42;;;;;;;10.95;5.80;;;;;;;;;;4937115;29;20479;-83
2022/05/23 06:20:08;;;;;;;10.68;6.38;;;;;;;;;;4936728;29;20123;-83
2022/05/23 06:22:34;;;;;;;8.77;6.10;;;;;;;;;;4919862;29;20031;-84
2022/05/23 06:25:02;;;;;;;10.25;5.97;;;;;;;;;;4919383;29;20546;-84
2022/05/23 06:27:28;;;;;;;10.88;6.63;;;;;;;;;;4936522;29;20054;-84
2022/05/23 06:29:54;;;;;;;10.65;6.75;;;;;;;;;;4902915;29;20047;-90
2022/05/23 06:32:20;;;;;;;12.32;6.32;;;;;;;;;;4919256;29;20151;-83
2022/05/23 06:34:46;;;;;;;12.60;6.65;;;;;;;;;;4919208;29;20124;-84
2022/05/23 06:37:12;;;;;;;10.77;6.50;;;;;;;;;;4919221;29;20052;-83
2022/05/23 06:39:38;;;;;;;10.10;6.28;;;;;;;;;;4918946;29;20058;-84
2022/05/23 06:42:05;;;;;;;10.32;6.45;;;;;;;;;;4936056;29;20054;-83
2022/05/23 06:44:31;;;;;;;13.15;6.18;;;;;;;;;;4919350;29;20118;-83
2022/05/23 06:46:58;;;;;;;10.15;6.00;;;;;;;;;;4918760;29;20126;-84
2022/05/23 06:49:25;;;;;;;12.88;6.65;;;;;;;;;;4919248;29;20062;-82
2022/05/23 06:51:52;;;;;;;10.80;6.15;;;;;;;;;;4918801;29;20043;-83
2022/05/23 06:54:22;;;;;;;11.68;6.10;;;;;;;;;;4918760;29;20052;-86
2022/05/23 06:56:48;;;;;;;8.82;6.20;;;;;;;;;;4918763;29;20051;-84
2022/05/23 06:59:15;;;;;;;13.02;6.82;;;;;;;;;;4918640;29;20052;-84
2022/05/23 07:01:42;;;;;;;9.50;6.20;;;;;;;;;;4918524;29;20551;-84
2022/05/23 07:04:08;;;;;;;10.30;6.68;;;;;;;;;;4901792;29;20083;-83
2022/05/23 07:14:49;;;;;;;11.60;6.63;;;;;;;;;;4934130;29;20047;-83
2022/05/23 07:17:16;;;;;;;13.63;6.55;;;;;;;;;;4918215;29;20063;-83
2022/05/23 07:19:42;;;;;;;12.95;6.97;;;;;;;;;;4935493;29;20515;-83
2022/05/23 07:22:09;;;;;;;12.68;6.80;;;;;;;;;;4918180;29;20084;-83
2022/05/23 07:24:35;;;;;;;12.48;5.90;;;;;;;;;;4935683;29;20047;-83
2022/05/23 07:27:01;;;;;;;10.60;6.07;;;;;;;;;;4935072;29;20479;-81
2022/05/23 07:29:28;;;;;;;11.85;6.07;;;;;;;;;;4918681;29;20043;-83
2022/05/23 07:31:54;;;;;;;10.95;6.13;;;;;;;;;;4934750;29;20531;-83
2022/05/23 07:34:20;;;;;;;9.30;6.00;;;;;;;;;;4935249;29;20052;-83
2022/05/23 07:36:47;;;;;;;10.95;6.47;;;;;;;;;;4934081;29;20477;-83
2022/05/23 07:39:14;;;;;;;9.73;6.15;;;;;;;;;;4935065;29;20094;-83
2022/05/23 07:41:41;;;;;;;9.88;6.50;;;;;;;;;;4933980;29;20071;-83
2022/05/23 07:44:08;;;;;;;11.13;5.90;;;;;;;;;;4934044;29;20047;-84
2022/05/23 07:46:34;;;;;;;10.60;5.60;;;;;;;;;;4934347;29;20054;-85
2022/05/23 07:49:00;;;;;;;10.05;6.30;;;;;;;;;;4933166;29;20604;-82
2022/05/23 07:51:30;;;;;;;11.07;6.15;;;;;;;;;;4953161;28;20128;-83
2022/05/23 08:02:11;;;;;;;12.95;6.78;;;;;;;;;;4954282;29;20039;-83
2022/05/23 08:04:38;;;;;;;10.65;5.95;;;;;;;;;;4953247;29;20126;-83
2022/05/23 08:07:04;;;;;;;14.25;6.40;;;;;;;;;;4937088;29;20043;-83
2022/05/23 08:09:30;;;;;;;10.38;6.38;;;;;;;;;;4953597;29;20047;-83
2022/05/23 08:11:57;;;;;;;11.05;6.60;;;;;;;;;;4937260;29;20130;-84
2022/05/23 08:14:23;;;;;;;9.63;6.22;;;;;;;;;;4937352;29;20047;-85
2022/05/23 08:16:50;;;;;;;11.25;6.35;;;;;;;;;;4954145;29;20141;-83
2022/05/23 08:19:16;;;;;;;10.63;6.05;;;;;;;;;;4938115;29;20047;-83
2022/05/23 08:21:50;;;;;;;11.15;6.15;;;;;;;;;;4956643;28;20406;-84
2022/05/23 08:24:17;;;;;;;11.57;5.78;;;;;;;;;;4957070;29;20039;-84
2022/05/23 08:26:43;;;;;;;8.90;5.90;;;;;;;;;;4956669;29;20043;-84
2022/05/23 08:29:09;;;;;;;13.02;5.93;;;;;;;;;;4956868;29;20051;-84
2022/05/23 08:31:36;;;;;;;9.88;5.60;;;;;;;;;;4957724;28;20483;-83
2022/05/23 08:34:02;;;;;;;11.88;5.13;;;;;;;;;;4958027;29;20483;-84
2022/05/23 08:36:28;;;;;;;12.00;5.85;;;;;;;;;;4924826;29;20043;-84
2022/05/23 08:38:54;;;;;;;10.45;5.32;;;;;;;;;;4924789;29;20047;-81
2022/05/23 08:41:32;;;;;;;10.48;5.70;;;;;;;;;;4957577;28;20039;-83
2022/05/23 08:44:05;;;;;;;10.93;5.88;;;;;;;;;;4957810;29;20114;-84
2022/05/23 08:46:34;;;;;;;8.60;5.78;;;;;;;;;;4940640;29;20039;-85
2022/05/23 08:49:06;;;;;;;13.20;5.88;;;;;;;;;;4956495;29;20046;-84
2022/05/23 08:51:43;;;;;;;11.07;5.45;;;;;;;;;;4940534;29;20114;-89
2022/05/23 08:54:16;;;;;;;10.95;5.65;;;;;;;;;;4956776;29;20102;-85
2022/05/23 08:56:45;;;;;;;9.25;5.20;;;;;;;;;;4957402;29;20039;-85
2022/05/23 08:59:21;;;;;;;9.55;5.05;;;;;;;;;;4956273;29;20391;-85
2022/05/23 09:01:49;;;;;;;11.15;5.25;;;;;;;;;;4940073;29;20043;-85
2022/05/23 09:04:34;;;;;;;9.32;5.03;;;;;;;;;;4956179;29;20074;-86
2022/05/23 09:07:01;;;;;;;9.70;4.00;;;;;;;;;;4940030;29;20043;-85
2022/05/23 09:09:31;;;;;;;7.60;3.90;;;;;;;;;;4940097;29;20051;-84
2022/05/23 09:12:02;;;;;;;11.52;4.80;;;;;;;;;;4957366;29;20051;-86
2022/05/23 09:14:28;;;;;;;8.05;3.90;;;;;;;;;;4955422;29;20051;-85
2022/05/23 09:16:55;;;;;;;7.07;4.00;;;;;;;;;;4939783;29;20054;-87
2022/05/23 09:19:37;;;;;;;7.88;3.70;;;;;;;;;;4955993;29;20513;-87
2022/05/23 09:22:13;;;;;;;9.40;4.30;;;;;;;;;;4940043;29;20118;-85
2022/05/23 09:24:41;;;;;;;7.85;4.40;;;;;;;;;;4957317;29;20058;-87
2022/05/23 09:27:13;;;;;;;9.93;5.30;;;;;;;;;;4955848;29;20095;-87
2022/05/23 09:29:39;;;;;;;8.60;5.43;;;;;;;;;;4955615;28;20055;-86
2022/05/23 09:32:08;;;;;;;10.82;4.90;;;;;;;;;;4955201;29;20439;-85
2022/05/23 09:34:36;;;;;;;8.45;3.35;;;;;;;;;;4939860;29;20051;-86
2022/05/23 09:37:03;;;;;;;6.90;2.90;;;;;;;;;;4955023;29;20359;-88
2022/05/23 09:39:30;;;;;;;7.43;3.20;;;;;;;;;;4933391;29;20043;-86
2022/05/23 09:47:49;;;;;;;9.02;3.80;;;;;;;;;;4901276;29;20105;-85
2022/05/23 09:50:27;;;;;;;6.22;3.45;;;;;;;;;;4918445;29;20504;-86
2022/05/23 09:52:56;;;;;;;7.82;3.78;;;;;;;;;;4900076;29;20168;-84
2022/05/23 09:55:40;;;;;;;6.57;2.97;;;;;;;;;;4885714;29;20036;-85
2022/05/23 09:58:13;;;;;;;6.50;3.45;;;;;;;;;;4901376;29;20048;-85
2022/05/23 10:00:41;;;;;;;9.23;3.55;;;;;;;;;;4901272;29;20062;-86
2022/05/23 10:03:13;;;;;;;6.15;3.33;;;;;;;;;;4918239;29;20060;-85
2022/05/23 10:05:50;;;;;;;8.10;3.50;;;;;;;;;;4901625;29;20044;-85
2022/05/23 10:08:39;;;;;;;7.13;2.78;;;;;;;;;;4901269;29;20055;-85
2022/05/23 10:11:07;;;;;;;5.35;2.85;;;;;;;;;;4891557;29;20091;-85
2022/05/23 10:13:40;;;;;;;5.32;2.40;;;;;;;;;;4901012;29;20488;-84
2022/05/23 10:16:09;;;;;;;8.00;3.28;;;;;;;;;;4901041;29;20048;-84
2022/05/23 10:18:37;;;;;;;7.40;2.88;;;;;;;;;;4900892;29;20044;-83
2022/05/23 10:21:18;;;;;;;8.82;3.13;;;;;;;;;;4869741;29;20448;-85
2022/05/23 10:23:57;;;;;;;10.55;3.70;;;;;;;;;;4901053;29;20134;-84
2022/05/23 10:26:25;;;;;;;6.95;3.30;;;;;;;;;;4901192;29;20058;-85
2022/05/23 10:28:53;;;;;;;7.53;3.63;;;;;;;;;;4900698;29;20051;-84
2022/05/23 10:31:38;;;;;;;7.00;4.07;;;;;;;;;;4885140;29;20056;-85
2022/05/23 10:34:22;;;;;;;8.33;2.90;;;;;;;;;;4917170;29;20100;-83
2022/05/23 10:36:49;;;;;;;7.28;3.08;;;;;;;;;;4900650;29;20048;-84
2022/05/23 10:42:07;;;;;;;6.32;3.38;;;;;;;;;;4917012;29;20048;-85
2022/05/23 10:44:52;;;;;;;6.38;3.03;;;;;;;;;;4900635;29;20275;-84
2022/05/23 10:47:26;;;;;;;9.18;3.45;;;;;;;;;;4900355;29;20055;-84
2022/05/23 10:50:11;;;;;;;7.60;3.50;;;;;;;;;;4900833;29;20048;-84
2022/05/23 10:52:44;;;;;;;8.23;3.00;;;;;;;;;;4920868;29;20107;-85
2022/05/23 10:55:19;;;;;;;6.82;3.67;;;;;;;;;;4919442;29;20059;-84
2022/05/23 10:57:51;;;;;;;8.20;3.03;;;;;;;;;;4935024;29;20202;-84
2022/05/23 11:00:19;;;;;;;7.07;2.78;;;;;;;;;;4918925;29;20126;-85
2022/05/23 11:02:48;;;;;;;10.32;2.90;;;;;;;;;;4934893;29;20047;-85
2022/05/23 11:05:22;;;;;;;5.85;3.10;;;;;;;;;;4919047;29;20048;-84
2022/05/23 11:08:07;;;;;;;5.80;2.83;;;;;;;;;;4902440;29;20377;-84
2022/05/23 11:10:35;;;;;;;6.50;3.20;;;;;;;;;;4919088;29;20047;-85
2022/05/23 11:13:19;;;;;;;9.57;3.10;;;;;;;;;;4935422;29;20283;-84
2022/05/23 11:15:54;;;;;;;6.05;2.80;;;;;;;;;;4936057;29;20040;-85
2022/05/23 11:18:20;;;;;;;7.10;2.78;;;;;;;;;;4935416;29;20435;-85
2022/05/23 11:20:47;;;;;;;7.03;2.95;;;;;;;;;;4916395;29;20048;-84
2022/05/23 11:23:16;;;;;;;5.88;2.38;;;;;;;;;;4935952;29;20043;-84
2022/05/23 11:25:47;;;;;;;6.40;2.90;;;;;;;;;;4935884;29;20071;-83
2022/05/23 11:34:11;;;;;;;6.32;2.55;;;;;;;;;;4935832;29;20043;-83
2022/05/23 11:39:41;;;;;;;7.07;2.20;;;;;;;;;;4918390;29;20131;-83
2022/05/23 11:42:10;;;;;;;7.07;2.40;;;;;;;;;;4935015;29;20195;-83
2022/05/23 11:44:43;;;;;;;4.93;1.90;;;;;;;;;;4950254;29;20057;-84
2022/05/23 11:47:12;;;;;;;5.80;1.92;;;;;;;;;;4918480;29;20050;-83
2022/05/23 11:49:46;;;;;;;4.95;1.70;;;;;;;;;;4918395;29;20043;-84
2022/05/23 11:52:26;;;;;;;6.25;2.10;;;;;;;;;;4918971;29;20049;-83
2022/05/23 11:54:52;;;;;;;4.57;1.67;;;;;;;;;;4939398;29;20046;-85
2022/05/23 11:57:35;;;;;;;7.65;2.05;;;;;;;;;;4922542;29;20121;-84
2022/05/23 12:00:03;;;;;;;4.60;1.90;;;;;;;;;;4939241;29;20059;-84
2022/05/23 12:02:29;;;;;;;4.60;2.20;;;;;;;;;;4954263;29;20043;-84
2022/05/23 12:04:55;;;;;;;5.45;2.00;;;;;;;;;;4922245;29;20050;-84
2022/05/23 12:07:37;;;;;;;5.72;2.30;;;;;;;;;;4922187;29;20116;-84
2022/05/23 12:10:25;;;;;;;6.03;2.50;;;;;;;;;;4922018;29;20130;-84
2022/05/23 12:12:51;;;;;;;5.65;2.38;;;;;;;;;;4939435;29;20036;-84
2022/05/23 12:15:36;;;;;;;6.55;2.50;;;;;;;;;;4939331;29;20391;-85
2022/05/23 12:18:02;;;;;;;6.00;2.67;;;;;;;;;;4939117;29;20051;-83
2022/05/23 12:20:29;;;;;;;7.65;2.33;;;;;;;;;;4922037;29;20044;-84
2022/05/23 12:23:07;;;;;;;6.28;2.22;;;;;;;;;;4939064;29;20068;-84
2022/05/23 12:25:33;;;;;;;8.00;2.42;;;;;;;;;;4954227;29;20039;-84
2022/05/23 12:28:14;;;;;;;8.25;2.47;;;;;;;;;;4922198;29;20050;-84
2022/05/23 12:30:41;;;;;;;4.38;2.00;;;;;;;;;;4918456;29;20060;-84
2022/05/23 12:33:10;;;;;;;6.13;2.47;;;;;;;;;;4918990;29;20382;-84
2022/05/23 12:35:39;;;;;;;6.38;2.65;;;;;;;;;;4918597;29;20044;-84
2022/05/23 12:38:24;;;;;;;6.03;2.70;;;;;;;;;;4903015;29;20047;-84
2022/05/23 12:40:53;;;;;;;5.50;2.90;;;;;;;;;;4919222;29;20055;-84
2022/05/23 12:43:42;;;;;;;6.45;2.67;;;;;;;;;;4919881;29;20095;-84
2022/05/23 12:46:09;;;;;;;7.03;2.83;;;;;;;;;;4918422;29;20040;-84
2022/05/23 12:48:47;;;;;;;7.43;2.40;;;;;;;;;;4918462;29;20127;-84
2022/05/23 12:51:35;;;;;;;9.30;2.92;;;;;;;;;;4919553;29;20040;-84
2022/05/23 12:54:14;;;;;;;5.15;2.40;;;;;;;;;;4918485;29;20064;-84
2022/05/23 12:56:43;;;;;;;7.57;2.85;;;;;;;;;;4918273;29;20116;-84
2022/05/23 12:59:27;;;;;;;7.80;2.42;;;;;;;;;;4917959;29;20044;-84
2022/05/23 13:01:57;;;;;;;6.90;3.28;;;;;;;;;;4902620;29;20356;-83
2022/05/23 13:04:26;;;;;;;7.13;2.70;;;;;;;;;;4917145;29;20048;-84
2022/05/23 13:06:58;;;;;;;7.07;2.38;;;;;;;;;;4918254;29;20080;-84
2022/05/23 13:09:44;;;;;;;7.53;2.60;;;;;;;;;;4918380;29;20220;-84
2022/05/23 13:12:22;;;;;;;6.78;3.55;;;;;;;;;;4917774;29;20456;-84
2022/05/23 13:14:56;;;;;;;6.28;2.38;;;;;;;;;;4917864;29;20185;-84
2022/05/23 13:17:29;;;;;;;7.75;2.58;;;;;;;;;;4917790;29;20047;-84
2022/05/23 13:22:40;;;;;;;5.47;2.10;;;;;;;;;;4900234;29;20481;-84
2022/05/23 13:25:06;;;;;;;6.68;2.72;;;;;;;;;;4914496;29;20399;-84
2022/05/23 13:27:37;;;;;;;8.00;2.58;;;;;;;;;;4918851;29;20464;-85
2022/05/23 13:30:18;;;;;;;6.43;2.35;;;;;;;;;;4920575;29;20059;-83
2022/05/23 13:32:45;;;;;;;6.45;2.45;;;;;;;;;;4921177;29;20391;-84
2022/05/23 13:35:24;;;;;;;7.95;2.67;;;;;;;;;;4920838;29;20447;-84
2022/05/23 13:37:50;;;;;;;5.78;2.50;;;;;;;;;;4942255;29;20451;-84
2022/05/23 13:40:19;;;;;;;6.50;2.72;;;;;;;;;;4950013;28;20560;-85
2022/05/23 13:42:45;;;;;;;6.95;2.80;;;;;;;;;;4918538;29;20047;-84
2022/05/23 13:45:15;;;;;;;6.47;2.90;;;;;;;;;;4937574;29;20071;-84
2022/05/23 13:47:46;;;;;;;5.63;2.60;;;;;;;;;;4920677;29;20046;-85
2022/05/23 13:50:21;;;;;;;6.85;2.88;;;;;;;;;;4920222;29;20035;-84
2022/05/23 13:52:52;;;;;;;8.57;3.00;;;;;;;;;;4937523;29;20066;-84
2022/05/23 13:55:22;;;;;;;6.10;2.90;;;;;;;;;;4920292;29;20126;-84
2022/05/23 13:57:57;;;;;;;6.95;2.80;;;;;;;;;;4919176;29;20554;-84
2022/05/23 14:00:25;;;;;;;8.95;2.90;;;;;;;;;;4920275;29;20086;-84
2022/05/23 14:02:54;;;;;;;6.50;3.08;;;;;;;;;;4920199;29;20035;-85
2022/05/23 14:05:21;;;;;;;7.78;2.53;;;;;;;;;;4919956;29;20046;-84
2022/05/23 14:07:47;;;;;;;6.50;3.10;;;;;;;;;;4920158;29;20096;-84
2022/05/23 14:10:19;;;;;;;7.35;2.80;;;;;;;;;;4919893;29;20050;-84
2022/05/23 14:12:46;;;;;;;7.13;2.67;;;;;;;;;;4920328;29;20368;-85
2022/05/23 14:15:13;;;;;;;6.18;2.63;;;;;;;;;;4919754;29;20036;-85
2022/05/23 14:17:43;;;;;;;7.65;2.80;;;;;;;;;;4919852;29;20043;-85
2022/05/23 14:20:27;;;;;;;8.50;2.70;;;;;;;;;;4919280;29;20048;-84
2022/05/23 14:23:12;;;;;;;7.88;3.17;;;;;;;;;;4904166;29;20047;-84
2022/05/23 14:25:45;;;;;;;6.65;2.83;;;;;;;;;;4936591;29;20036;-84
2022/05/23 14:28:28;;;;;;;6.60;2.80;;;;;;;;;;4919804;29;20066;-84
2022/05/23 14:30:59;;;;;;;7.03;3.00;;;;;;;;;;4919225;29;20095;-85
2022/05/23 14:33:29;;;;;;;6.35;2.72;;;;;;;;;;4919818;29;20055;-84
2022/05/23 14:35:59;;;;;;;9.65;3.15;;;;;;;;;;4936982;29;20047;-85
2022/05/23 14:38:24;;;;;;;6.80;3.13;;;;;;;;;;4919514;29;20489;-84
2022/05/23 14:40:51;;;;;;;7.78;3.03;;;;;;;;;;4936447;29;20046;-84
2022/05/23 14:43:23;;;;;;;8.10;2.90;;;;;;;;;;4918845;29;20059;-84
2022/05/23 14:45:51;;;;;;;7.93;3.22;;;;;;;;;;4936259;29;20175;-84
2022/05/23 14:48:22;;;;;;;7.43;3.00;;;;;;;;;;4919398;29;20083;-85
2022/05/23 14:50:56;;;;;;;11.18;3.30;;;;;;;;;;4936726;29;20043;-85
2022/05/23 14:56:17;;;;;;;7.55;2.83;;;;;;;;;;4936182;29;20127;-85
2022/05/23 15:01:27;;;;;;;9.63;3.13;;;;;;;;;;4934674;29;20449;-84
2022/05/23 15:03:55;;;;;;;6.93;3.10;;;;;;;;;;4919404;29;20054;-83
2022/05/23 15:06:21;;;;;;;8.35;3.13;;;;;;;;;;4919261;29;20136;-84
2022/05/23 15:08:47;;;;;;;9.20;3.20;;;;;;;;;;4919348;29;20424;-84
2022/05/23 15:11:18;;;;;;;7.07;3.00;;;;;;;;;;4918837;29;20182;-82
2022/05/23 15:13:44;;;;;;;9.35;3.40;;;;;;;;;;4919004;29;20043;-84
2022/05/23 15:16:30;;;;;;;6.32;2.75;;;;;;;;;;4918791;29;20051;-84
2022/05/23 15:18:58;;;;;;;5.68;2.45;;;;;;;;;;4918891;29;20047;-84
2022/05/23 15:21:24;;;;;;;5.35;2.58;;;;;;;;;;4914987;29;20043;-84
2022/05/23 15:23:51;;;;;;;7.07;2.85;;;;;;;;;;4918461;29;20494;-84
2022/05/23 15:26:19;;;;;;;7.13;3.00;;;;;;;;;;4918836;29;20048;-85
2022/05/23 15:28:46;;;;;;;5.32;2.53;;;;;;;;;;4917501;29;20051;-84
2022/05/23 15:31:12;;;;;;;7.53;2.58;;;;;;;;;;4918416;29;20514;-84
2022/05/23 15:33:38;;;;;;;5.90;2.83;;;;;;;;;;4915790;29;20047;-84
2022/05/23 15:36:05;;;;;;;7.88;2.85;;;;;;;;;;4918457;29;20115;-84
2022/05/23 15:38:31;;;;;;;7.25;2.72;;;;;;;;;;4933223;29;20095;-84
2022/05/23 15:40:57;;;;;;;6.00;2.75;;;;;;;;;;4918669;29;20044;-84
2022/05/23 15:43:25;;;;;;;5.30;2.50;;;;;;;;;;4917643;29;20051;-84
2022/05/23 15:45:52;;;;;;;8.48;2.70;;;;;;;;;;4950437;29;20031;-84
2022/05/23 15:48:20;;;;;;;7.90;2.92;;;;;;;;;;4917471;29;20513;-84
2022/05/23 15:50:45;;;;;;;7.88;3.08;;;;;;;;;;4918273;29;20051;-85
2022/05/23 15:53:12;;;;;;;6.43;2.67;;;;;;;;;;4934714;29;20062;-84
2022/05/23 15:55:41;;;;;;;7.15;2.92;;;;;;;;;;4918280;29;20106;-84
2022/05/23 15:58:07;;;;;;;7.90;3.30;;;;;;;;;;4947275;29;20048;-84
2022/05/23 16:00:35;;;;;;;7.15;3.08;;;;;;;;;;4918305;29;20095;-85
2022/05/23 16:03:04;;;;;;;6.38;3.15;;;;;;;;;;4934896;29;20175;-83
2022/05/23 16:05:30;;;;;;;7.72;3.25;;;;;;;;;;4934240;29;20126;-83